תחנות METAR סמוכות

 

LLBG - Ben-Gurion(Civ/M, Israel
Distance from station: 'מ 83km
עודכן: 19/04/2021 09:20
בהיר
בהיר
 רוח מ משתנה
רוח: משתנה 2 km/h
טמפרטורה: 30°C
נקודת הטל: 12°C
לחות: 33%
ברומטר: 1012 hPa
סיכום: בהיר
ראות: greater than 10 km
2021/04/19 06:20 LLBG 190620Z VRB01KT CAVOK 30/12 Q1012 NOSIG
LLSD - Sde Dov Airport, Israel
Distance from station: 'מ 75km
עודכן: 30/06/2019 23:50
לא מעודכן
מעונן חלקית
מעונן חלקית
 רוח מ משתנה
רוח: משתנה 6 km/h
טמפרטורה: 27°C
עומס חום: 30°C
נקודת הטל: 23°C
לחות: 79%
ברומטר: 1007 hPa
עננים: מעונן חלקית
ראות: 10 km
Cloud details: מעונן חלקית 518 m
2019/06/30 20:50 LLSD 302050Z VRB03KT 9999 SCT017 27/23 Q1007
 
LLHA - Haifa (isr-Afb), Israel
Distance from station: 'צמ 129km
עודכן: 19/04/2021 08:50
בהיר
בהיר
 רוח מ 'דמ
רוח: 'דמ 15 km/h
טמפרטורה: 31°C
נקודת הטל: 7°C
לחות: 22%
ברומטר: 1012 hPa
סיכום: בהיר
ראות: greater than 10 km
2021/04/19 05:50 LLHA 190550Z 14008KT CAVOK 31/07 Q1012
LLIB - Ben Ya Akov, Israel
Distance from station: 'צמ 183km
עודכן: 19/04/2021 08:50
בהיר
בהיר
 רוח מ משתנה
רוח: משתנה 2 km/h
טמפרטורה: 30°C
נקודת הטל: 11°C
לחות: 31%
ברומטר: 1015 hPa
סיכום: בהיר
ראות: greater than 10 km
2021/04/19 05:50 LLIB 190550Z AUTO VRB01KT CAVOK 30/11 Q1015
 
LLOV - Ovda (isr-Afb/Ci, Israel
Distance from station: 'דדמ 246km
עודכן: 31/03/2019 22:50
לא מעודכן
בהיר
בהיר
 רוח מ 'מדמ
רוח: 'מדמ 13 km/h
טמפרטורה: 12°C
נקודת הטל: 0°C
לחות: 44%
ברומטר: 1012 hPa
סיכום: בהיר
ראות: greater than 10 km
2019/03/31 19:50 LLOV 311950Z 24007KT CAVOK 12/00 Q1012
LLET - Elat/J. Hozman(A, Israel
Distance from station: 'דדמ 287km
עודכן: 18/03/2019 17:50
לא מעודכן
בהיר
בהיר
 רוח מ 'צצמ
רוח: 'צצמ 30 km/h
טמפרטורה: 24°C
נקודת הטל: -1°C
לחות: 19%
ברומטר: 1016 hPa
סיכום: בהיר
ראות: greater than 10 km
2019/03/18 15:50 LLET 181550Z 02016KT CAVOK 24/M01 Q1016
 
LCLK - Larnaca/Larnax A, Cyprus
Distance from station: 'צ 321km
עודכן: 19/04/2021 09:30
בהיר
בהיר
 רוח מ 'מצמ
רוח: 'מצמ 7 km/h
טמפרטורה: 27°C
נקודת הטל: 9°C
לחות: 32%
ברומטר: 1012 hPa
סיכום: בהיר
ראות: greater than 10 km
2021/04/19 06:30 LCLK 190630Z 06004KT CAVOK 27/09 Q1012 NOSIG